Time;durP1;ratioP1;P1;durP2;ratioP2;P2;SDS_P1;SDS_P2;PMS_P1;PMS_P2;Temp;Humidity;BMP_temperature;BMP_pressure;BME280_temperature;BME280_humidity;BME280_pressure;Samples;Min_cycle;Max_cycle;Signal;HPM_P1;HPM_P2
2021/12/01 00:02:22;;;;;;;2.88;1.13;;;22.10;50.80;;;;;;5189167;28;20041;-49
2021/12/01 00:04:54;;;;;;;2.13;0.90;;;22.10;50.90;;;;;;5181634;28;20056;-49
2021/12/01 00:07:27;;;;;;;3.08;0.85;;;22.10;50.90;;;;;;5184085;28;20041;-54
2021/12/01 00:10:00;;;;;;;2.28;1.00;;;22.10;51.00;;;;;;5198762;28;20037;-54
2021/12/01 00:12:32;;;;;;;3.83;1.17;;;22.10;50.90;;;;;;5195823;28;20063;-51
2021/12/01 00:15:06;;;;;;;4.55;0.95;;;22.00;50.90;;;;;;5200785;28;20045;-51
2021/12/01 00:17:38;;;;;;;3.63;0.95;;;22.00;50.90;;;;;;5196063;28;20061;-55
2021/12/01 00:20:14;;;;;;;1.70;0.98;;;22.00;50.90;;;;;;5190360;28;20099;-50
2021/12/01 00:22:47;;;;;;;5.50;0.80;;;22.00;51.00;;;;;;5189788;28;20434;-52
2021/12/01 00:25:22;;;;;;;1.88;0.90;;;22.00;50.90;;;;;;5190323;28;20493;-50
2021/12/01 00:27:55;;;;;;;2.83;0.90;;;22.00;50.90;;;;;;5192073;28;20053;-51
2021/12/01 00:30:28;;;;;;;3.50;0.80;;;22.00;50.90;;;;;;5175011;28;20456;-50
2021/12/01 00:33:01;;;;;;;2.35;1.25;;;22.00;51.00;;;;;;5173045;28;21233;-52
2021/12/01 00:35:33;;;;;;;3.97;0.90;;;22.00;50.90;;;;;;5176058;28;20045;-58
2021/12/01 00:38:06;;;;;;;1.70;0.60;;;22.00;51.00;;;;;;5175129;28;20291;-54
2021/12/01 00:40:39;;;;;;;1.67;1.00;;;22.00;51.10;;;;;;5167878;28;20472;-56
2021/12/01 00:43:16;;;;;;;1.85;0.90;;;22.00;51.10;;;;;;5174616;28;20052;-49
2021/12/01 00:46:08;;;;;;;2.75;0.90;;;22.00;51.10;;;;;;5175223;28;20045;-57
2021/12/01 00:48:41;;;;;;;5.40;0.93;;;22.00;51.10;;;;;;5186404;28;20048;-51
2021/12/01 00:51:16;;;;;;;1.95;0.82;;;21.90;51.30;;;;;;5172604;28;20060;-50
2021/12/01 00:53:49;;;;;;;3.38;0.85;;;21.90;51.00;;;;;;5178894;28;20541;-54
2021/12/01 00:56:22;;;;;;;3.13;1.05;;;21.90;51.00;;;;;;5179673;28;20045;-53
2021/12/01 00:58:54;;;;;;;2.85;0.82;;;21.90;51.00;;;;;;5174067;28;20559;-54
2021/12/01 01:01:27;;;;;;;2.08;0.70;;;21.90;51.00;;;;;;5174875;28;20568;-58
2021/12/01 01:03:59;;;;;;;1.95;0.70;;;21.90;51.00;;;;;;5177223;28;20932;-51
2021/12/01 01:06:32;;;;;;;3.42;0.75;;;21.90;51.00;;;;;;5180719;28;20051;-53
2021/12/01 01:09:06;;;;;;;1.97;1.00;;;21.90;51.00;;;;;;5167210;28;20056;-58
2021/12/01 01:17:24;;;;;;;1.13;0.60;;;21.90;51.00;;;;;;5171502;28;20037;-55
2021/12/01 01:19:56;;;;;;;4.20;0.70;;;21.90;51.00;;;;;;5185880;28;20072;-52
2021/12/01 01:22:29;;;;;;;4.85;0.80;;;21.90;51.10;;;;;;5170624;28;20060;-52
2021/12/01 01:25:01;;;;;;;1.10;0.50;;;21.90;51.10;;;;;;5176712;28;20052;-59
2021/12/01 01:27:34;;;;;;;1.15;0.60;;;21.90;51.10;;;;;;5172069;28;20052;-50
2021/12/01 01:30:07;;;;;;;1.57;0.70;;;21.90;51.10;;;;;;5172535;28;20057;-53
2021/12/01 01:32:40;;;;;;;3.58;0.70;;;21.90;51.10;;;;;;5176329;28;20057;-56
2021/12/01 01:35:13;;;;;;;1.45;0.82;;;21.90;51.10;;;;;;5182039;28;20064;-57
2021/12/01 01:37:45;;;;;;;3.20;0.77;;;21.90;51.60;;;;;;5165866;28;20211;-51
2021/12/01 01:40:18;;;;;;;2.15;0.60;;;21.80;51.10;;;;;;5173473;28;20574;-52
2021/12/01 01:42:51;;;;;;;2.08;0.70;;;21.80;51.10;;;;;;5171823;28;20047;-51
2021/12/01 01:45:23;;;;;;;4.05;0.70;;;21.80;51.10;;;;;;5180612;28;20713;-47
2021/12/01 01:48:01;;;;;;;1.67;0.50;;;21.80;51.10;;;;;;5174256;28;20057;-58
2021/12/01 01:50:36;;;;;;;1.40;0.57;;;21.80;51.10;;;;;;5169916;28;20073;-48
2021/12/01 01:53:21;;;;;;;1.38;0.60;;;21.80;51.10;;;;;;5182451;28;20048;-53
2021/12/01 01:55:57;;;;;;;;;;;21.80;51.10;;;;;;5171386;28;20041;-52
2021/12/01 01:58:30;;;;;;;2.85;0.88;;;21.80;51.20;;;;;;5170905;28;19928;-56
2021/12/01 02:01:11;;;;;;;2.13;0.60;;;21.80;51.30;;;;;;5194317;28;20053;-51
2021/12/01 02:03:45;;;;;;;1.50;0.60;;;21.80;51.30;;;;;;5169238;28;20053;-50
2021/12/01 02:06:25;;;;;;;4.63;1.10;;;21.80;51.30;;;;;;5186242;28;20041;-57
2021/12/01 02:08:58;;;;;;;4.45;0.63;;;21.80;51.30;;;;;;5165566;28;20045;-50
2021/12/01 02:11:31;;;;;;;1.17;0.70;;;21.80;51.30;;;;;;5161496;28;20428;-53
2021/12/01 02:14:04;;;;;;;1.58;0.75;;;21.80;51.30;;;;;;5178599;28;20504;-49
2021/12/01 02:16:37;;;;;;;5.03;0.90;;;21.80;51.40;;;;;;5171603;28;20620;-53
2021/12/01 02:19:10;;;;;;;5.60;0.70;;;21.80;51.40;;;;;;5163158;28;20707;-58
2021/12/01 02:21:43;;;;;;;2.80;0.80;;;21.80;51.40;;;;;;5166113;28;20505;-59
2021/12/01 02:24:18;;;;;;;2.90;0.70;;;21.70;51.40;;;;;;5165931;28;20056;-52
2021/12/01 02:26:51;;;;;;;1.65;0.55;;;21.80;52.20;;;;;;5175518;28;20051;-49
2021/12/01 02:29:25;;;;;;;;;;;21.70;51.40;;;;;;5173447;28;20045;-54
2021/12/01 02:31:57;;;;;;;4.05;0.65;;;21.60;51.40;;;;;;5178223;28;20492;-55
2021/12/01 02:34:33;;;;;;;5.47;0.75;;;21.70;51.50;;;;;;5167029;28;20052;-59
2021/12/01 02:37:06;;;;;;;1.75;0.60;;;21.70;52.10;;;;;;5170119;28;20044;-52
2021/12/01 02:39:39;;;;;;;3.80;0.75;;;21.70;51.40;;;;;;5171968;28;20056;-48
2021/12/01 02:42:18;;;;;;;2.08;0.70;;;21.70;51.40;;;;;;5172183;28;20707;-51
2021/12/01 02:44:50;;;;;;;5.05;0.57;;;21.70;51.50;;;;;;5172465;28;20775;-54
2021/12/01 02:47:25;;;;;;;1.75;0.38;;;21.70;51.40;;;;;;5173634;28;20054;-49
2021/12/01 02:49:57;;;;;;;2.40;0.50;;;21.70;51.40;;;;;;5171831;28;20886;-50
2021/12/01 02:52:34;;;;;;;2.53;0.40;;;21.70;51.30;;;;;;5180342;28;20424;-54
2021/12/01 02:55:09;;;;;;;0.93;0.40;;;21.70;51.30;;;;;;5197398;28;20417;-53
2021/12/01 02:57:51;;;;;;;1.38;0.50;;;21.70;51.30;;;;;;5192085;28;20052;-52
2021/12/01 03:00:23;;;;;;;0.77;0.40;;;21.70;51.40;;;;;;5178357;28;20046;-53
2021/12/01 03:02:56;;;;;;;0.50;0.40;;;21.70;51.30;;;;;;5193815;28;20048;-48
2021/12/01 03:05:29;;;;;;;2.60;0.57;;;21.70;51.30;;;;;;5191122;28;20160;-51
2021/12/01 03:08:02;;;;;;;1.65;0.40;;;21.60;51.30;;;;;;5194020;28;20041;-49
2021/12/01 03:10:35;;;;;;;1.85;0.50;;;21.60;51.30;;;;;;5187436;28;20451;-57
2021/12/01 03:13:07;;;;;;;0.85;0.40;;;21.60;51.20;;;;;;5182178;28;20056;-53
2021/12/01 03:15:40;;;;;;;1.70;0.47;;;21.60;51.30;;;;;;5185639;28;20060;-51
2021/12/01 03:18:14;;;;;;;0.60;0.40;;;21.60;51.20;;;;;;5183462;28;20338;-49
2021/12/01 03:20:48;;;;;;;2.25;0.40;;;21.60;51.20;;;;;;5174323;28;21679;-53
2021/12/01 03:23:21;;;;;;;;;;;21.60;51.20;;;;;;5180031;28;20061;-52
2021/12/01 03:25:54;;;;;;;0.57;0.30;;;21.50;51.20;;;;;;5179447;28;20327;-55
2021/12/01 03:28:26;;;;;;;2.00;0.40;;;21.50;51.20;;;;;;5191225;28;20159;-51
2021/12/01 03:30:59;;;;;;;0.45;0.30;;;21.60;51.30;;;;;;5184539;28;20565;-52
2021/12/01 03:33:31;;;;;;;1.30;0.43;;;21.60;51.30;;;;;;5191714;28;20168;-50
2021/12/01 03:36:04;;;;;;;0.55;0.40;;;21.60;51.30;;;;;;5180787;28;20786;-56
2021/12/01 03:38:37;;;;;;;0.50;0.30;;;21.60;51.30;;;;;;5175227;28;20057;-51
2021/12/01 03:41:09;;;;;;;1.75;0.47;;;21.60;51.30;;;;;;5178881;28;20033;-57
2021/12/01 03:43:42;;;;;;;1.23;0.40;;;21.60;51.30;;;;;;5167016;28;20037;-55
2021/12/01 03:46:16;;;;;;;4.78;0.52;;;21.60;51.20;;;;;;5165542;28;20045;-54
2021/12/01 03:48:49;;;;;;;4.53;0.40;;;21.60;52.00;;;;;;5178131;28;20056;-57
2021/12/01 03:51:24;;;;;;;1.95;0.50;;;21.60;51.30;;;;;;5176445;28;20060;-56
2021/12/01 03:53:57;;;;;;;0.82;0.30;;;21.60;51.30;;;;;;5180805;28;20087;-48
2021/12/01 03:56:30;;;;;;;1.77;0.50;;;21.50;51.30;;;;;;5163110;28;20049;-52
2021/12/01 03:59:04;;;;;;;3.30;0.60;;;21.50;51.30;;;;;;5188739;28;20067;-48
2021/12/01 04:01:37;;;;;;;1.27;0.40;;;21.50;51.30;;;;;;5180800;28;20797;-54
2021/12/01 04:04:09;;;;;;;0.80;0.40;;;21.50;51.30;;;;;;5179652;28;20480;-54
2021/12/01 04:06:42;;;;;;;0.82;0.30;;;21.50;51.30;;;;;;5177565;28;20705;-57
2021/12/01 04:09:14;;;;;;;1.48;0.50;;;21.50;51.30;;;;;;5168947;28;20037;-54
2021/12/01 04:11:47;;;;;;;3.53;0.50;;;21.60;51.40;;;;;;5164151;28;20049;-57
2021/12/01 04:14:20;;;;;;;1.15;0.38;;;21.60;51.40;;;;;;5167246;28;20045;-54
2021/12/01 04:16:52;;;;;;;1.77;0.65;;;21.60;51.40;;;;;;5162522;28;20041;-53
2021/12/01 04:19:25;;;;;;;0.85;0.50;;;21.60;51.40;;;;;;5161938;28;21933;-50
2021/12/01 04:21:58;;;;;;;2.17;0.60;;;21.60;51.50;;;;;;5167844;28;20060;-55
2021/12/01 04:24:30;;;;;;;2.28;0.63;;;21.50;51.40;;;;;;5166081;28;20614;-50
2021/12/01 04:27:03;;;;;;;1.73;0.40;;;21.50;51.40;;;;;;5162378;28;20494;-57
2021/12/01 04:29:37;;;;;;;1.70;0.40;;;21.50;51.50;;;;;;5169667;28;20318;-58
2021/12/01 04:32:09;;;;;;;1.67;0.50;;;21.50;51.60;;;;;;5169903;28;20437;-57
2021/12/01 04:34:41;;;;;;;4.80;0.77;;;21.50;51.50;;;;;;5169388;28;20514;-50
2021/12/01 04:37:14;;;;;;;3.38;0.52;;;21.50;51.60;;;;;;5149132;28;20041;-54
2021/12/01 04:39:47;;;;;;;1.75;0.80;;;21.50;51.70;;;;;;5176414;28;20643;-53
2021/12/01 04:42:20;;;;;;;3.22;0.40;;;21.50;51.80;;;;;;5163216;28;20084;-54
2021/12/01 04:44:52;;;;;;;3.78;0.60;;;21.50;51.80;;;;;;5171070;28;20048;-51
2021/12/01 04:47:30;;;;;;;3.70;0.77;;;21.50;51.80;;;;;;5177154;28;20049;-58
2021/12/01 04:50:05;;;;;;;3.05;0.55;;;21.50;51.80;;;;;;5169833;28;20049;-52
2021/12/01 04:52:38;;;;;;;2.50;0.60;;;21.50;51.90;;;;;;5170536;28;20779;-50
2021/12/01 04:55:11;;;;;;;2.97;0.52;;;21.50;52.00;;;;;;5169427;28;20041;-48
2021/12/01 04:57:46;;;;;;;2.28;0.60;;;21.50;52.00;;;;;;5164168;28;20045;-50
2021/12/01 05:00:21;;;;;;;2.30;0.55;;;21.50;52.00;;;;;;5175841;28;20490;-51
2021/12/01 05:02:54;;;;;;;1.08;0.35;;;21.50;52.10;;;;;;5150443;28;20123;-55
2021/12/01 05:05:30;;;;;;;2.28;0.30;;;21.50;52.00;;;;;;5174567;28;20052;-56
2021/12/01 05:08:03;;;;;;;0.63;0.32;;;21.50;52.10;;;;;;5159500;28;20177;-54
2021/12/01 05:10:36;;;;;;;2.80;0.45;;;21.50;52.10;;;;;;5182671;28;20053;-51
2021/12/01 05:13:08;;;;;;;3.33;0.40;;;21.40;52.10;;;;;;5171514;28;21198;-49
2021/12/01 05:15:41;;;;;;;5.60;0.80;;;21.50;52.20;;;;;;5181412;28;20052;-51
2021/12/01 05:18:13;;;;;;;0.93;0.20;;;21.50;52.20;;;;;;5160431;28;20045;-48
2021/12/01 05:20:46;;;;;;;1.20;0.38;;;21.40;52.20;;;;;;5179924;28;20037;-51
2021/12/01 05:23:18;;;;;;;0.60;0.20;;;21.40;52.20;;;;;;5171411;28;20041;-53
2021/12/01 05:25:51;;;;;;;1.35;0.50;;;21.50;52.30;;;;;;5178003;28;20049;-54
2021/12/01 05:28:25;;;;;;;0.98;0.40;;;21.40;52.30;;;;;;5173422;28;20052;-57
2021/12/01 05:30:57;;;;;;;1.52;0.40;;;21.40;52.30;;;;;;5180524;28;20048;-50
2021/12/01 05:33:33;;;;;;;2.10;0.73;;;21.50;52.30;;;;;;5162786;28;20064;-59
2021/12/01 05:36:05;;;;;;;1.92;0.60;;;21.50;52.40;;;;;;5178727;28;20057;-48
2021/12/01 05:38:38;;;;;;;1.05;0.40;;;21.50;52.60;;;;;;5183119;28;20041;-47
2021/12/01 05:41:10;;;;;;;1.85;0.60;;;21.50;52.70;;;;;;5185478;28;20219;-50
2021/12/01 05:43:43;;;;;;;2.97;0.80;;;21.50;52.60;;;;;;5180270;28;20044;-48
2021/12/01 05:46:16;;;;;;;3.08;0.57;;;21.50;52.60;;;;;;5196186;28;20046;-46
2021/12/01 05:48:51;;;;;;;3.83;0.70;;;21.50;53.20;;;;;;5165902;28;20049;-52
2021/12/01 05:51:25;;;;;;;4.28;0.50;;;21.50;52.60;;;;;;5171368;28;20399;-56
2021/12/01 05:53:57;;;;;;;1.70;0.40;;;21.60;52.70;;;;;;5192190;28;20737;-48
2021/12/01 05:56:30;;;;;;;1.27;0.40;;;21.60;52.70;;;;;;5177303;28;20053;-53
2021/12/01 05:59:03;;;;;;;4.80;0.67;;;21.60;52.80;;;;;;5174649;28;20045;-52
2021/12/01 06:01:35;;;;;;;3.97;0.70;;;21.60;52.80;;;;;;5151968;28;21301;-47
2021/12/01 06:04:08;;;;;;;10.63;1.20;;;21.60;52.70;;;;;;5164244;28;20053;-51
2021/12/01 06:06:40;;;;;;;8.13;1.10;;;21.70;52.70;;;;;;5172300;28;20056;-49
2021/12/01 06:09:13;;;;;;;7.53;1.05;;;21.70;52.70;;;;;;5177355;28;20052;-48
2021/12/01 06:11:47;;;;;;;36.97;1.88;;;21.70;52.70;;;;;;5159648;28;20049;-56
2021/12/01 06:14:20;;;;;;;11.52;1.48;;;21.70;52.70;;;;;;5179834;28;20463;-50
2021/12/01 06:16:53;;;;;;;12.13;1.53;;;21.70;52.60;;;;;;5196653;28;20563;-55
2021/12/01 06:19:26;;;;;;;11.95;1.10;;;21.70;52.40;;;;;;5172809;28;20520;-47
2021/12/01 06:21:59;;;;;;;11.43;1.30;;;21.70;52.30;;;;;;5181267;28;20045;-49
2021/12/01 06:24:31;;;;;;;8.82;1.02;;;21.80;52.20;;;;;;5191428;28;20049;-50
2021/12/01 06:27:05;;;;;;;8.35;0.90;;;21.80;52.10;;;;;;5170903;28;20382;-56
2021/12/01 06:29:38;;;;;;;5.20;1.00;;;21.80;52.00;;;;;;5165600;28;20529;-46
2021/12/01 06:32:10;;;;;;;6.88;0.70;;;21.80;51.90;;;;;;5170890;28;20041;-54
2021/12/01 06:34:43;;;;;;;7.60;0.93;;;21.80;51.90;;;;;;5162097;28;20646;-50
2021/12/01 06:37:17;;;;;;;6.65;0.90;;;21.80;51.80;;;;;;5169110;28;20060;-50
2021/12/01 06:39:51;;;;;;;5.55;0.82;;;21.80;51.80;;;;;;5192808;28;20175;-46
2021/12/01 06:42:23;;;;;;;0.90;0.60;;;21.80;49.70;;;;;;5202190;28;20041;-49
2021/12/01 06:44:56;;;;;;;2.70;0.57;;;21.60;48.10;;;;;;5208233;28;20262;-47
2021/12/01 06:47:28;;;;;;;1.33;0.60;;;21.50;48.40;;;;;;5203125;28;20049;-46
2021/12/01 06:50:03;;;;;;;1.10;0.40;;;21.40;47.90;;;;;;5200890;28;20056;-52
2021/12/01 06:52:36;;;;;;;1.35;0.57;;;21.30;48.10;;;;;;5203651;28;20048;-52
2021/12/01 06:55:09;;;;;;;1.63;0.68;;;21.20;48.10;;;;;;5203160;28;20049;-49
2021/12/01 06:57:42;;;;;;;1.00;0.40;;;21.00;47.80;;;;;;5196465;28;20049;-50
2021/12/01 07:00:17;;;;;;;3.30;0.32;;;21.00;48.70;;;;;;5198290;28;20045;-49
2021/12/01 07:02:49;;;;;;;1.48;0.70;;;21.00;48.90;;;;;;5199967;28;20067;-49
2021/12/01 07:05:22;;;;;;;3.27;0.73;;;21.00;49.20;;;;;;5197710;28;20045;-46
2021/12/01 07:07:56;;;;;;;1.45;0.60;;;21.00;49.70;;;;;;5200846;28;20053;-50
2021/12/01 07:10:28;;;;;;;2.20;0.55;;;21.10;49.60;;;;;;5194816;28;20048;-53
2021/12/01 07:13:01;;;;;;;5.45;0.80;;;21.20;50.00;;;;;;5196560;28;20500;-57
2021/12/01 07:15:33;;;;;;;2.45;0.60;;;21.20;50.10;;;;;;5197683;28;20049;-46
2021/12/01 07:18:05;;;;;;;1.38;0.60;;;21.30;50.20;;;;;;5174101;28;20049;-49
2021/12/01 07:20:38;;;;;;;1.80;0.40;;;21.30;50.40;;;;;;5192094;28;20045;-50
2021/12/01 07:23:11;;;;;;;1.90;0.88;;;21.30;50.40;;;;;;5200404;28;20041;-52
2021/12/01 07:25:58;;;;;;;2.17;0.90;;;21.30;50.50;;;;;;5194922;28;20056;-50
2021/12/01 07:28:30;;;;;;;3.67;1.08;;;21.30;50.60;;;;;;5193290;28;20408;-53
2021/12/01 07:31:03;;;;;;;4.40;0.80;;;21.30;50.60;;;;;;5209898;23;21045;-53
2021/12/01 07:33:35;;;;;;;3.70;1.13;;;21.40;50.60;;;;;;5195469;28;20305;-54
2021/12/01 07:36:08;;;;;;;3.60;0.90;;;21.40;50.60;;;;;;5197629;28;20044;-54
2021/12/01 07:38:40;;;;;;;3.45;0.98;;;21.40;50.50;;;;;;5173563;28;20753;-54
2021/12/01 07:41:13;;;;;;;1.90;0.60;;;21.50;50.50;;;;;;5205728;28;20508;-54
2021/12/01 07:43:46;;;;;;;4.10;0.93;;;21.50;50.50;;;;;;5187687;28;20045;-53
2021/12/01 07:46:21;;;;;;;4.00;0.85;;;21.50;50.50;;;;;;5197175;28;20084;-53
2021/12/01 07:48:54;;;;;;;3.40;0.98;;;21.50;50.50;;;;;;5198178;28;20049;-50
2021/12/01 07:51:26;;;;;;;3.10;1.00;;;21.50;50.50;;;;;;5199987;28;20053;-52
2021/12/01 07:53:58;;;;;;;2.85;0.80;;;21.50;50.40;;;;;;5192443;28;20456;-53
2021/12/01 07:56:32;;;;;;;1.80;0.70;;;21.50;50.40;;;;;;5188151;28;20607;-53
2021/12/01 07:59:05;;;;;;;2.13;0.82;;;21.50;50.40;;;;;;5184881;28;20056;-52
2021/12/01 08:01:37;;;;;;;2.17;0.93;;;21.50;50.40;;;;;;5170973;28;20041;-53
2021/12/01 08:04:11;;;;;;;2.60;1.37;;;21.50;50.40;;;;;;5167250;28;20048;-55
2021/12/01 08:06:43;;;;;;;2.10;1.10;;;21.50;50.40;;;;;;5197978;28;20048;-54
2021/12/01 08:09:16;;;;;;;2.45;0.70;;;21.50;50.40;;;;;;5170918;28;20405;-54
2021/12/01 08:11:48;;;;;;;2.88;0.88;;;21.60;50.50;;;;;;5196567;28;20056;-54
2021/12/01 08:14:21;;;;;;;1.70;0.70;;;21.60;50.40;;;;;;5195266;28;20041;-53
2021/12/01 08:16:54;;;;;;;3.70;0.95;;;21.60;50.40;;;;;;5169067;28;20045;-53
2021/12/01 08:19:26;;;;;;;2.00;0.90;;;21.60;50.50;;;;;;5190848;28;20037;-53
2021/12/01 08:21:59;;;;;;;2.58;0.70;;;21.60;50.50;;;;;;5185952;28;20310;-53
2021/12/01 08:24:32;;;;;;;4.10;0.97;;;21.70;50.50;;;;;;5193950;28;20507;-52
2021/12/01 08:27:05;;;;;;;3.45;0.98;;;21.70;50.50;;;;;;5174036;28;20045;-54
2021/12/01 08:29:38;;;;;;;2.35;1.02;;;21.70;50.50;;;;;;5179630;28;20547;-52
2021/12/01 08:32:10;;;;;;;2.85;0.95;;;21.70;50.50;;;;;;5195408;28;20669;-56
2021/12/01 08:35:08;;;;;;;6.32;1.00;;;21.70;50.40;;;;;;5196738;28;20056;-52
2021/12/01 08:37:42;;;;;;;2.60;1.00;;;21.70;50.50;;;;;;5200499;28;20053;-53
2021/12/01 08:40:16;;;;;;;2.47;1.17;;;21.70;50.50;;;;;;5194715;28;20045;-54
2021/12/01 08:42:50;;;;;;;2.20;1.02;;;21.70;50.40;;;;;;5195731;28;20071;-52
2021/12/01 08:45:23;;;;;;;3.57;1.20;;;21.70;50.50;;;;;;5194612;28;20598;-55
2021/12/01 08:47:55;;;;;;;1.52;0.98;;;21.80;50.60;;;;;;5198107;28;20045;-51
2021/12/01 08:50:28;;;;;;;3.83;0.95;;;21.80;50.50;;;;;;5193241;28;20580;-54
2021/12/01 08:53:01;;;;;;;1.67;1.00;;;21.80;50.60;;;;;;5205567;28;20044;-53
2021/12/01 08:55:33;;;;;;;3.60;1.33;;;21.80;50.50;;;;;;5191838;28;20063;-55
2021/12/01 08:58:13;;;;;;;1.92;0.90;;;21.80;51.10;;;;;;5201012;28;20060;-54
2021/12/01 09:00:48;;;;;;;1.70;0.77;;;21.80;50.50;;;;;;5196263;28;20045;-54
2021/12/01 09:03:21;;;;;;;5.13;1.50;;;21.80;50.40;;;;;;5196631;28;20045;-51
2021/12/01 09:05:54;;;;;;;2.53;0.90;;;21.80;50.50;;;;;;5192294;28;20056;-53
2021/12/01 09:08:27;;;;;;;5.18;1.10;;;21.80;50.50;;;;;;5195840;28;20045;-50
2021/12/01 09:11:02;;;;;;;4.10;0.90;;;21.80;50.50;;;;;;5189398;28;20301;-55
2021/12/01 09:13:36;;;;;;;3.58;1.08;;;21.80;50.50;;;;;;5195189;28;20551;-54
2021/12/01 09:16:09;;;;;;;3.45;1.25;;;21.80;50.40;;;;;;5191346;28;20511;-54
2021/12/01 09:18:42;;;;;;;;;;;21.80;50.50;;;;;;5186318;28;20057;-55
2021/12/01 09:21:15;;;;;;;2.83;0.73;;;21.80;50.50;;;;;;5177485;28;19928;-52
2021/12/01 09:23:48;;;;;;;2.28;0.88;;;21.80;50.50;;;;;;5191185;28;20049;-50
2021/12/01 09:26:20;;;;;;;3.53;0.77;;;21.80;50.50;;;;;;5187935;28;20036;-54
2021/12/01 09:28:53;;;;;;;1.75;1.08;;;21.80;50.50;;;;;;5195874;28;20041;-53
2021/12/01 09:31:25;;;;;;;1.73;0.90;;;21.80;50.50;;;;;;5198463;28;22186;-55
2021/12/01 09:33:58;;;;;;;1.75;0.68;;;21.90;51.20;;;;;;5165962;28;20048;-57
2021/12/01 09:36:31;;;;;;;1.17;0.77;;;21.90;50.60;;;;;;5195871;28;20052;-53
2021/12/01 09:39:04;;;;;;;2.60;0.77;;;21.90;50.60;;;;;;5202481;28;20053;-54
2021/12/01 09:41:37;;;;;;;2.70;0.90;;;21.90;50.50;;;;;;5177961;28;20291;-54
2021/12/01 09:44:09;;;;;;;2.05;0.95;;;21.90;50.50;;;;;;5175575;28;20037;-55
2021/12/01 09:46:42;;;;;;;5.05;0.75;;;21.90;50.50;;;;;;5196510;28;20052;-56
2021/12/01 09:49:15;;;;;;;3.38;1.20;;;21.90;50.50;;;;;;5200808;28;20327;-55
2021/12/01 09:51:47;;;;;;;3.37;0.70;;;21.90;50.50;;;;;;5178966;28;20049;-55
2021/12/01 09:54:19;;;;;;;4.10;0.90;;;21.90;50.60;;;;;;5187787;28;20048;-54
2021/12/01 09:56:52;;;;;;;2.83;1.30;;;21.90;50.90;;;;;;5202554;28;20048;-57
2021/12/01 09:59:24;;;;;;;2.25;0.80;;;21.90;51.10;;;;;;5196005;28;20040;-53
2021/12/01 10:01:57;;;;;;;1.42;0.75;;;22.00;51.20;;;;;;5192442;28;21807;-53
2021/12/01 10:04:30;;;;;;;2.45;0.95;;;22.00;51.40;;;;;;5200362;28;20045;-54
2021/12/01 10:07:30;;;;;;;4.00;0.80;;;22.00;51.40;;;;;;5151082;28;20048;-56
2021/12/01 10:10:09;;;;;;;3.42;1.00;;;22.00;51.30;;;;;;5195866;28;20040;-54
2021/12/01 10:12:47;;;;;;;2.67;0.70;;;22.00;51.50;;;;;;5172444;28;20330;-53
2021/12/01 10:15:31;;;;;;;2.45;0.60;;;22.00;51.50;;;;;;5193377;28;20044;-54
2021/12/01 10:18:12;;;;;;;2.85;0.88;;;22.00;51.40;;;;;;5197778;28;20041;-52
2021/12/01 10:20:58;;;;;;;2.75;1.05;;;22.00;51.40;;;;;;5200998;28;20045;-53
2021/12/01 10:23:31;;;;;;;1.70;0.73;;;22.00;51.40;;;;;;5199895;28;20063;-55
2021/12/01 10:26:15;;;;;;;4.47;0.95;;;22.00;51.40;;;;;;5184235;28;20037;-54
2021/12/01 10:28:54;;;;;;;1.95;0.77;;;22.00;51.40;;;;;;5191180;28;20049;-52
2021/12/01 10:31:41;;;;;;;2.85;0.70;;;22.10;51.40;;;;;;5194819;28;20045;-51
2021/12/01 10:34:19;;;;;;;2.47;0.60;;;22.10;51.40;;;;;;5179058;28;20045;-49
2021/12/01 10:37:10;;;;;;;1.65;0.82;;;22.10;51.50;;;;;;5196728;28;20045;-53
2021/12/01 10:39:46;;;;;;;2.38;0.82;;;22.10;51.30;;;;;;5205465;28;20041;-56
2021/12/01 10:42:18;;;;;;;2.92;0.85;;;22.10;51.40;;;;;;5202280;28;20037;-54
2021/12/01 10:45:00;;;;;;;1.02;0.70;;;22.10;51.40;;;;;;5202630;28;20037;-56
2021/12/01 10:47:41;;;;;;;1.70;0.70;;;22.10;51.40;;;;;;5190767;28;20045;-53
2021/12/01 10:50:16;;;;;;;1.77;0.60;;;22.10;51.40;;;;;;5187631;28;20604;-50
2021/12/01 10:53:04;;;;;;;1.35;0.73;;;22.10;51.40;;;;;;5203925;28;20044;-51
2021/12/01 10:55:53;;;;;;;1.83;0.90;;;22.10;51.50;;;;;;5170859;28;20057;-56
2021/12/01 10:58:40;;;;;;;1.25;0.65;;;22.10;51.50;;;;;;5174604;28;20053;-55
2021/12/01 11:01:23;;;;;;;1.65;0.70;;;22.10;51.60;;;;;;5200052;28;20397;-52
2021/12/01 11:03:56;;;;;;;3.75;1.15;;;22.10;51.70;;;;;;5205064;28;20092;-53
2021/12/01 11:06:33;;;;;;;1.02;0.57;;;22.10;51.70;;;;;;5183340;28;20049;-53
2021/12/01 11:09:07;;;;;;;1.95;0.82;;;22.10;51.80;;;;;;5200563;28;20049;-54
2021/12/01 11:11:45;;;;;;;2.05;0.73;;;22.10;51.80;;;;;;5188051;28;20056;-50
2021/12/01 11:14:43;;;;;;;2.40;0.98;;;22.10;51.70;;;;;;5192947;28;20527;-51
2021/12/01 11:17:39;;;;;;;1.70;0.77;;;22.00;51.70;;;;;;5194198;28;20420;-55
2021/12/01 11:20:30;;;;;;;1.42;0.70;;;22.10;51.80;;;;;;5202751;28;20048;-52
2021/12/01 11:23:12;;;;;;;2.05;0.63;;;22.10;51.90;;;;;;5189915;28;20516;-53
2021/12/01 11:25:48;;;;;;;1.67;0.75;;;22.10;52.50;;;;;;5209903;28;20425;-51
2021/12/01 11:28:25;;;;;;;4.15;0.85;;;22.10;51.90;;;;;;5208553;28;20045;-54
2021/12/01 11:31:00;;;;;;;3.13;0.60;;;22.00;51.90;;;;;;5187639;28;20417;-57
2021/12/01 11:33:33;;;;;;;1.95;0.60;;;22.10;51.90;;;;;;5207918;28;20045;-55
2021/12/01 11:36:08;;;;;;;2.20;0.97;;;22.10;51.90;;;;;;5210501;28;20050;-57
2021/12/01 11:38:42;;;;;;;2.00;0.60;;;22.00;51.80;;;;;;5189411;28;20052;-54
2021/12/01 11:41:14;;;;;;;3.38;0.73;;;22.00;51.70;;;;;;5207456;28;20044;-57
2021/12/01 11:43:48;;;;;;;1.58;0.88;;;22.00;51.70;;;;;;5207088;28;20393;-55
2021/12/01 11:46:20;;;;;;;;;;;22.10;51.80;;;;;;5207825;28;20051;-51
2021/12/01 11:48:55;;;;;;;1.20;0.60;;;22.00;51.70;;;;;;5206793;28;19947;-53
2021/12/01 11:51:31;;;;;;;2.05;0.90;;;22.00;51.70;;;;;;5202106;28;20045;-53
2021/12/01 11:54:12;;;;;;;2.65;1.00;;;22.00;51.60;;;;;;5199645;28;20057;-54
2021/12/01 11:57:04;;;;;;;2.10;0.63;;;22.00;51.60;;;;;;5192911;28;20061;-53
2021/12/01 11:59:43;;;;;;;1.75;0.50;;;22.10;51.60;;;;;;5175132;28;20061;-53
2021/12/01 12:02:18;;;;;;;2.50;0.52;;;22.10;51.60;;;;;;5187903;28;20294;-52
2021/12/01 12:04:55;;;;;;;1.02;0.50;;;22.00;51.50;;;;;;5208247;28;20056;-52
2021/12/01 12:07:27;;;;;;;0.90;0.60;;;22.00;51.50;;;;;;5206629;28;20064;-52
2021/12/01 12:10:16;;;;;;;0.75;0.50;;;22.00;51.50;;;;;;5209563;28;20045;-52
2021/12/01 12:13:05;;;;;;;1.13;0.60;;;22.10;51.50;;;;;;5194916;28;20076;-55
2021/12/01 12:15:50;;;;;;;2.53;0.70;;;22.10;51.50;;;;;;5175163;28;20040;-55
2021/12/01 12:18:39;;;;;;;0.88;0.50;;;22.10;51.50;;;;;;5167737;28;20049;-55
2021/12/01 12:21:13;;;;;;;1.95;0.90;;;22.10;51.40;;;;;;5159776;28;20041;-55
2021/12/01 12:23:46;;;;;;;;;;;22.10;51.50;;;;;;5171036;28;20046;-53
2021/12/01 12:26:43;;;;;;;2.33;0.40;;;22.10;51.50;;;;;;5166647;28;20317;-54
2021/12/01 12:29:29;;;;;;;4.07;0.63;;;22.00;51.60;;;;;;5177638;28;20045;-51
2021/12/01 12:32:19;;;;;;;1.52;0.57;;;22.10;51.70;;;;;;5180238;28;20049;-53
2021/12/01 12:34:54;;;;;;;1.70;0.60;;;22.10;51.70;;;;;;5168904;28;20500;-51
2021/12/01 12:37:30;;;;;;;4.28;0.55;;;22.10;51.80;;;;;;5143547;28;20484;-54
2021/12/01 12:40:27;;;;;;;6.60;0.88;;;22.10;52.00;;;;;;5179687;28;20049;-51
2021/12/01 12:43:07;;;;;;;7.03;0.65;;;22.00;52.10;;;;;;5143917;28;20151;-53
2021/12/01 12:45:58;;;;;;;5.82;0.80;;;22.00;52.10;;;;;;5161913;28;20416;-55
2021/12/01 12:48:38;;;;;;;8.57;0.95;;;22.00;52.20;;;;;;5157552;28;20292;-53
2021/12/01 12:51:26;;;;;;;9.55;1.45;;;22.00;52.60;;;;;;5157038;28;20052;-56
2021/12/01 12:54:02;;;;;;;2.72;1.23;;;22.00;52.50;;;;;;5194160;28;20049;-53
2021/12/01 12:56:37;;;;;;;5.55;1.15;;;22.00;52.40;;;;;;5175589;28;20396;-51
2021/12/01 12:59:31;;;;;;;6.13;0.93;;;22.00;52.40;;;;;;5182471;28;20563;-55
2021/12/01 13:02:10;;;;;;;;;;;22.00;53.60;;;;;;5189744;28;20045;-54
2021/12/01 13:04:49;;;;;;;3.60;0.80;;;22.00;53.10;;;;;;5190909;28;19920;-54
2021/12/01 13:07:30;;;;;;;7.57;1.13;;;22.00;52.90;;;;;;5168745;28;20048;-53
2021/12/01 13:10:16;;;;;;;4.82;0.82;;;22.00;53.00;;;;;;5166110;28;20072;-54
2021/12/01 13:12:53;;;;;;;4.10;0.73;;;22.00;53.10;;;;;;5140163;28;26225;-53
2021/12/01 13:15:44;;;;;;;6.82;1.08;;;22.00;53.10;;;;;;5174947;28;20059;-54
2021/12/01 13:18:24;;;;;;;3.60;1.05;;;22.00;53.20;;;;;;5155279;28;20572;-53
2021/12/01 13:21:04;;;;;;;7.80;0.90;;;22.00;53.20;;;;;;5162446;28;20053;-55
2021/12/01 13:23:45;;;;;;;6.55;1.10;;;22.00;53.20;;;;;;5150093;28;20053;-53
2021/12/01 13:26:23;;;;;;;5.80;1.10;;;22.00;53.10;;;;;;5174060;28;20045;-51
2021/12/01 13:29:04;;;;;;;4.70;1.08;;;22.00;53.20;;;;;;5177314;28;20071;-55
2021/12/01 13:31:43;;;;;;;8.82;1.02;;;22.00;53.30;;;;;;5178588;23;20037;-76
2021/12/01 13:34:26;;;;;;;3.28;0.82;;;22.00;53.20;;;;;;5199556;28;20052;-76
2021/12/01 13:37:02;;;;;;;2.28;0.80;;;22.00;53.20;;;;;;5183085;28;20056;-76